sensor_id;sensor_type;location;lat;lon;timestamp;P1;durP1;ratioP1;P2;durP2;ratioP2
38379;SDS011;38377;47.418;18.882;2022-10-18T00:02:07;20.55;;;15.57;;
38379;SDS011;38377;47.418;18.882;2022-10-18T00:04:32;21.65;;;15.45;;
38379;SDS011;38377;47.418;18.882;2022-10-18T00:06:58;22.85;;;16.08;;
38379;SDS011;38377;47.418;18.882;2022-10-18T00:09:23;22.45;;;16.50;;
38379;SDS011;38377;47.418;18.882;2022-10-18T00:11:51;25.30;;;15.90;;
38379;SDS011;38377;47.418;18.882;2022-10-18T00:14:17;21.23;;;15.82;;
38379;SDS011;38377;47.418;18.882;2022-10-18T00:16:42;20.45;;;16.25;;
38379;SDS011;38377;47.418;18.882;2022-10-18T00:19:08;20.70;;;16.50;;
38379;SDS011;38377;47.418;18.882;2022-10-18T00:21:34;22.85;;;16.65;;
38379;SDS011;38377;47.418;18.882;2022-10-18T00:24:00;23.95;;;15.20;;
38379;SDS011;38377;47.418;18.882;2022-10-18T00:26:26;19.83;;;15.30;;
38379;SDS011;38377;47.418;18.882;2022-10-18T00:28:55;23.52;;;16.50;;
38379;SDS011;38377;47.418;18.882;2022-10-18T00:31:27;20.58;;;15.38;;
38379;SDS011;38377;47.418;18.882;2022-10-18T00:34:08;25.10;;;16.70;;
38379;SDS011;38377;47.418;18.882;2022-10-18T00:36:36;27.00;;;17.45;;
38379;SDS011;38377;47.418;18.882;2022-10-18T00:39:02;23.38;;;16.23;;
38379;SDS011;38377;47.418;18.882;2022-10-18T00:41:30;23.08;;;16.05;;
38379;SDS011;38377;47.418;18.882;2022-10-18T00:46:32;23.00;;;16.67;;
38379;SDS011;38377;47.418;18.882;2022-10-18T00:49:03;25.10;;;16.80;;
38379;SDS011;38377;47.418;18.882;2022-10-18T00:51:39;22.67;;;16.73;;
38379;SDS011;38377;47.418;18.882;2022-10-18T00:54:11;23.92;;;16.48;;
38379;SDS011;38377;47.418;18.882;2022-10-18T00:56:39;27.45;;;18.50;;
38379;SDS011;38377;47.418;18.882;2022-10-18T00:59:04;24.05;;;17.75;;
38379;SDS011;38377;47.418;18.882;2022-10-18T01:01:32;23.45;;;17.10;;
38379;SDS011;38377;47.418;18.882;2022-10-18T01:03:57;24.52;;;17.38;;
38379;SDS011;38377;47.418;18.882;2022-10-18T01:06:23;24.10;;;17.58;;
38379;SDS011;38377;47.418;18.882;2022-10-18T01:17:18;20.00;;;13.35;;
38379;SDS011;38377;47.418;18.882;2022-10-18T01:20:22;26.77;;;17.38;;
38379;SDS011;38377;47.418;18.882;2022-10-18T01:22:54;24.85;;;16.95;;
38379;SDS011;38377;47.418;18.882;2022-10-18T01:28:50;22.92;;;16.17;;
38379;SDS011;38377;47.418;18.882;2022-10-18T01:31:20;28.45;;;18.20;;
38379;SDS011;38377;47.418;18.882;2022-10-18T01:33:55;22.52;;;17.48;;
38379;SDS011;38377;47.418;18.882;2022-10-18T01:36:34;26.85;;;18.17;;
38379;SDS011;38377;47.418;18.882;2022-10-18T01:39:04;26.65;;;17.25;;
38379;SDS011;38377;47.418;18.882;2022-10-18T01:41:33;24.83;;;17.00;;
38379;SDS011;38377;47.418;18.882;2022-10-18T01:44:01;23.70;;;16.35;;
38379;SDS011;38377;47.418;18.882;2022-10-18T01:46:29;23.02;;;16.63;;
38379;SDS011;38377;47.418;18.882;2022-10-18T01:48:57;24.95;;;17.02;;
38379;SDS011;38377;47.418;18.882;2022-10-18T01:51:24;22.30;;;16.85;;
38379;SDS011;38377;47.418;18.882;2022-10-18T01:53:52;25.38;;;17.55;;
38379;SDS011;38377;47.418;18.882;2022-10-18T01:59:09;21.67;;;16.75;;
38379;SDS011;38377;47.418;18.882;2022-10-18T02:04:37;24.35;;;17.13;;
38379;SDS011;38377;47.418;18.882;2022-10-18T02:07:28;24.33;;;17.88;;
38379;SDS011;38377;47.418;18.882;2022-10-18T02:10:16;24.38;;;16.52;;
38379;SDS011;38377;47.418;18.882;2022-10-18T02:12:49;24.85;;;17.98;;
38379;SDS011;38377;47.418;18.882;2022-10-18T02:15:20;23.20;;;17.38;;
38379;SDS011;38377;47.418;18.882;2022-10-18T02:17:49;23.83;;;16.90;;
38379;SDS011;38377;47.418;18.882;2022-10-18T02:20:17;26.15;;;16.88;;
38379;SDS011;38377;47.418;18.882;2022-10-18T02:22:45;22.10;;;16.30;;
38379;SDS011;38377;47.418;18.882;2022-10-18T02:25:15;24.42;;;17.52;;
38379;SDS011;38377;47.418;18.882;2022-10-18T02:27:45;24.98;;;17.67;;
38379;SDS011;38377;47.418;18.882;2022-10-18T02:30:11;27.65;;;18.55;;
38379;SDS011;38377;47.418;18.882;2022-10-18T02:35:17;24.25;;;17.77;;
38379;SDS011;38377;47.418;18.882;2022-10-18T02:37:43;24.70;;;18.20;;
38379;SDS011;38377;47.418;18.882;2022-10-18T02:40:12;26.50;;;18.50;;
38379;SDS011;38377;47.418;18.882;2022-10-18T02:42:43;23.05;;;16.92;;
38379;SDS011;38377;47.418;18.882;2022-10-18T02:45:14;26.20;;;18.10;;
38379;SDS011;38377;47.418;18.882;2022-10-18T02:47:41;25.13;;;17.67;;
38379;SDS011;38377;47.418;18.882;2022-10-18T02:50:07;25.70;;;18.35;;
38379;SDS011;38377;47.418;18.882;2022-10-18T02:52:33;24.35;;;17.95;;
38379;SDS011;38377;47.418;18.882;2022-10-18T02:54:59;27.08;;;17.08;;
38379;SDS011;38377;47.418;18.882;2022-10-18T02:57:25;23.98;;;17.40;;
38379;SDS011;38377;47.418;18.882;2022-10-18T02:59:51;24.85;;;17.42;;
38379;SDS011;38377;47.418;18.882;2022-10-18T03:02:17;23.45;;;16.98;;
38379;SDS011;38377;47.418;18.882;2022-10-18T03:04:42;27.55;;;18.15;;
38379;SDS011;38377;47.418;18.882;2022-10-18T03:07:08;27.20;;;17.55;;
38379;SDS011;38377;47.418;18.882;2022-10-18T03:09:34;25.67;;;17.65;;
38379;SDS011;38377;47.418;18.882;2022-10-18T03:11:59;25.48;;;17.70;;
38379;SDS011;38377;47.418;18.882;2022-10-18T03:14:25;25.05;;;17.13;;
38379;SDS011;38377;47.418;18.882;2022-10-18T03:16:51;25.92;;;17.67;;
38379;SDS011;38377;47.418;18.882;2022-10-18T03:19:16;24.42;;;17.00;;
38379;SDS011;38377;47.418;18.882;2022-10-18T03:21:42;25.83;;;17.40;;
38379;SDS011;38377;47.418;18.882;2022-10-18T03:24:08;25.25;;;17.90;;
38379;SDS011;38377;47.418;18.882;2022-10-18T03:26:33;26.85;;;17.77;;
38379;SDS011;38377;47.418;18.882;2022-10-18T03:28:59;25.27;;;18.35;;
38379;SDS011;38377;47.418;18.882;2022-10-18T03:31:25;24.42;;;16.80;;
38379;SDS011;38377;47.418;18.882;2022-10-18T03:33:50;26.60;;;17.83;;
38379;SDS011;38377;47.418;18.882;2022-10-18T03:36:16;26.05;;;17.67;;
38379;SDS011;38377;47.418;18.882;2022-10-18T03:38:41;27.63;;;18.95;;
38379;SDS011;38377;47.418;18.882;2022-10-18T03:41:07;28.13;;;18.30;;
38379;SDS011;38377;47.418;18.882;2022-10-18T03:43:33;27.40;;;18.90;;
38379;SDS011;38377;47.418;18.882;2022-10-18T03:45:59;23.75;;;18.15;;
38379;SDS011;38377;47.418;18.882;2022-10-18T03:48:25;27.48;;;17.92;;
38379;SDS011;38377;47.418;18.882;2022-10-18T03:50:50;31.00;;;18.92;;
38379;SDS011;38377;47.418;18.882;2022-10-18T03:53:16;29.63;;;18.38;;
38379;SDS011;38377;47.418;18.882;2022-10-18T03:55:42;27.50;;;18.45;;
38379;SDS011;38377;47.418;18.882;2022-10-18T03:58:08;25.85;;;18.30;;
38379;SDS011;38377;47.418;18.882;2022-10-18T04:00:34;26.63;;;18.05;;
38379;SDS011;38377;47.418;18.882;2022-10-18T04:03:00;25.85;;;18.65;;
38379;SDS011;38377;47.418;18.882;2022-10-18T04:05:25;35.25;;;21.38;;
38379;SDS011;38377;47.418;18.882;2022-10-18T04:07:54;33.92;;;19.25;;
38379;SDS011;38377;47.418;18.882;2022-10-18T04:10:20;32.10;;;21.55;;
38379;SDS011;38377;47.418;18.882;2022-10-18T04:12:46;27.48;;;19.05;;
38379;SDS011;38377;47.418;18.882;2022-10-18T04:15:11;28.40;;;19.08;;
38379;SDS011;38377;47.418;18.882;2022-10-18T04:17:37;24.13;;;18.30;;
38379;SDS011;38377;47.418;18.882;2022-10-18T04:20:03;26.75;;;18.80;;
38379;SDS011;38377;47.418;18.882;2022-10-18T04:22:29;29.85;;;19.25;;
38379;SDS011;38377;47.418;18.882;2022-10-18T04:24:55;29.08;;;18.92;;
38379;SDS011;38377;47.418;18.882;2022-10-18T04:27:21;30.08;;;19.48;;
38379;SDS011;38377;47.418;18.882;2022-10-18T04:29:47;32.20;;;20.27;;
38379;SDS011;38377;47.418;18.882;2022-10-18T04:32:12;33.10;;;21.17;;
38379;SDS011;38377;47.418;18.882;2022-10-18T04:34:38;31.17;;;21.13;;
38379;SDS011;38377;47.418;18.882;2022-10-18T04:37:04;28.58;;;20.35;;
38379;SDS011;38377;47.418;18.882;2022-10-18T04:39:29;33.83;;;20.10;;
38379;SDS011;38377;47.418;18.882;2022-10-18T04:41:55;35.35;;;20.40;;
38379;SDS011;38377;47.418;18.882;2022-10-18T04:44:21;32.65;;;21.48;;
38379;SDS011;38377;47.418;18.882;2022-10-18T04:46:46;33.00;;;21.67;;
38379;SDS011;38377;47.418;18.882;2022-10-18T04:49:12;35.17;;;24.45;;
38379;SDS011;38377;47.418;18.882;2022-10-18T04:51:38;28.85;;;20.90;;
38379;SDS011;38377;47.418;18.882;2022-10-18T04:54:04;41.00;;;23.85;;
38379;SDS011;38377;47.418;18.882;2022-10-18T04:56:30;42.22;;;27.73;;
38379;SDS011;38377;47.418;18.882;2022-10-18T04:58:57;42.78;;;25.25;;
38379;SDS011;38377;47.418;18.882;2022-10-18T05:01:23;41.20;;;25.85;;
38379;SDS011;38377;47.418;18.882;2022-10-18T05:03:52;35.70;;;22.55;;
38379;SDS011;38377;47.418;18.882;2022-10-18T05:06:18;38.80;;;24.33;;
38379;SDS011;38377;47.418;18.882;2022-10-18T05:08:45;41.90;;;24.10;;
38379;SDS011;38377;47.418;18.882;2022-10-18T05:11:10;38.65;;;23.25;;
38379;SDS011;38377;47.418;18.882;2022-10-18T05:13:36;36.78;;;22.88;;
38379;SDS011;38377;47.418;18.882;2022-10-18T05:16:02;39.30;;;22.95;;
38379;SDS011;38377;47.418;18.882;2022-10-18T05:18:32;34.22;;;23.00;;
38379;SDS011;38377;47.418;18.882;2022-10-18T05:20:57;40.17;;;23.33;;
38379;SDS011;38377;47.418;18.882;2022-10-18T05:23:23;51.08;;;23.45;;
38379;SDS011;38377;47.418;18.882;2022-10-18T05:25:49;43.40;;;22.58;;
38379;SDS011;38377;47.418;18.882;2022-10-18T05:28:15;37.20;;;20.88;;
38379;SDS011;38377;47.418;18.882;2022-10-18T05:30:41;43.53;;;23.15;;
38379;SDS011;38377;47.418;18.882;2022-10-18T05:33:07;44.65;;;23.02;;
38379;SDS011;38377;47.418;18.882;2022-10-18T05:35:33;47.70;;;23.70;;
38379;SDS011;38377;47.418;18.882;2022-10-18T05:38:02;44.95;;;22.88;;
38379;SDS011;38377;47.418;18.882;2022-10-18T05:40:30;32.22;;;18.00;;
38379;SDS011;38377;47.418;18.882;2022-10-18T05:42:56;40.92;;;23.48;;
38379;SDS011;38377;47.418;18.882;2022-10-18T05:45:22;40.38;;;21.55;;
38379;SDS011;38377;47.418;18.882;2022-10-18T05:47:47;41.92;;;22.67;;
38379;SDS011;38377;47.418;18.882;2022-10-18T05:50:13;35.65;;;22.23;;
38379;SDS011;38377;47.418;18.882;2022-10-18T05:52:39;41.03;;;22.02;;
38379;SDS011;38377;47.418;18.882;2022-10-18T05:55:04;30.20;;;21.13;;
38379;SDS011;38377;47.418;18.882;2022-10-18T05:57:30;33.30;;;20.08;;
38379;SDS011;38377;47.418;18.882;2022-10-18T05:59:56;25.38;;;17.88;;
38379;SDS011;38377;47.418;18.882;2022-10-18T06:02:22;29.05;;;17.60;;
38379;SDS011;38377;47.418;18.882;2022-10-18T06:04:47;29.00;;;15.52;;
38379;SDS011;38377;47.418;18.882;2022-10-18T06:07:13;26.08;;;16.10;;
38379;SDS011;38377;47.418;18.882;2022-10-18T06:09:39;24.08;;;15.38;;
38379;SDS011;38377;47.418;18.882;2022-10-18T06:12:05;25.23;;;15.38;;
38379;SDS011;38377;47.418;18.882;2022-10-18T06:14:32;24.25;;;16.13;;
38379;SDS011;38377;47.418;18.882;2022-10-18T06:16:59;21.70;;;15.18;;
38379;SDS011;38377;47.418;18.882;2022-10-18T06:19:24;22.75;;;15.93;;
38379;SDS011;38377;47.418;18.882;2022-10-18T06:21:50;25.08;;;16.33;;
38379;SDS011;38377;47.418;18.882;2022-10-18T06:24:16;28.90;;;18.45;;
38379;SDS011;38377;47.418;18.882;2022-10-18T06:26:42;25.17;;;18.33;;
38379;SDS011;38377;47.418;18.882;2022-10-18T06:29:08;28.52;;;19.25;;
38379;SDS011;38377;47.418;18.882;2022-10-18T06:31:34;24.80;;;17.20;;
38379;SDS011;38377;47.418;18.882;2022-10-18T06:34:00;23.00;;;17.38;;
38379;SDS011;38377;47.418;18.882;2022-10-18T06:36:27;26.17;;;17.58;;
38379;SDS011;38377;47.418;18.882;2022-10-18T06:38:53;21.92;;;16.70;;
38379;SDS011;38377;47.418;18.882;2022-10-18T06:41:20;27.27;;;17.67;;
38379;SDS011;38377;47.418;18.882;2022-10-18T06:43:49;24.77;;;17.10;;
38379;SDS011;38377;47.418;18.882;2022-10-18T06:46:17;30.05;;;16.70;;
38379;SDS011;38377;47.418;18.882;2022-10-18T06:48:43;22.35;;;15.50;;
38379;SDS011;38377;47.418;18.882;2022-10-18T06:51:09;21.63;;;14.00;;
38379;SDS011;38377;47.418;18.882;2022-10-18T06:53:36;19.25;;;12.60;;
38379;SDS011;38377;47.418;18.882;2022-10-18T06:56:06;18.40;;;12.43;;
38379;SDS011;38377;47.418;18.882;2022-10-18T06:58:34;19.52;;;13.05;;
38379;SDS011;38377;47.418;18.882;2022-10-18T07:03:40;21.20;;;13.18;;
38379;SDS011;38377;47.418;18.882;2022-10-18T07:06:07;19.75;;;14.25;;
38379;SDS011;38377;47.418;18.882;2022-10-18T07:08:35;18.10;;;13.30;;
38379;SDS011;38377;47.418;18.882;2022-10-18T07:11:01;20.52;;;13.70;;
38379;SDS011;38377;47.418;18.882;2022-10-18T07:13:27;19.25;;;14.10;;
38379;SDS011;38377;47.418;18.882;2022-10-18T07:18:34;16.50;;;12.43;;
38379;SDS011;38377;47.418;18.882;2022-10-18T07:21:03;23.88;;;12.95;;
38379;SDS011;38377;47.418;18.882;2022-10-18T07:23:33;19.42;;;13.90;;
38379;SDS011;38377;47.418;18.882;2022-10-18T07:26:00;21.98;;;15.07;;
38379;SDS011;38377;47.418;18.882;2022-10-18T07:28:27;21.58;;;13.43;;
38379;SDS011;38377;47.418;18.882;2022-10-18T07:30:54;23.52;;;13.43;;
38379;SDS011;38377;47.418;18.882;2022-10-18T07:33:19;21.60;;;12.63;;
38379;SDS011;38377;47.418;18.882;2022-10-18T07:35:45;18.25;;;12.60;;
38379;SDS011;38377;47.418;18.882;2022-10-18T07:38:12;20.30;;;13.57;;
38379;SDS011;38377;47.418;18.882;2022-10-18T07:40:38;23.45;;;13.30;;
38379;SDS011;38377;47.418;18.882;2022-10-18T07:43:03;15.80;;;12.05;;
38379;SDS011;38377;47.418;18.882;2022-10-18T07:45:29;17.02;;;13.70;;
38379;SDS011;38377;47.418;18.882;2022-10-18T07:47:56;18.15;;;14.35;;
38379;SDS011;38377;47.418;18.882;2022-10-18T07:50:22;17.55;;;14.18;;
38379;SDS011;38377;47.418;18.882;2022-10-18T07:52:48;18.20;;;12.80;;
38379;SDS011;38377;47.418;18.882;2022-10-18T07:55:14;21.25;;;12.38;;
38379;SDS011;38377;47.418;18.882;2022-10-18T07:57:40;18.58;;;13.00;;
38379;SDS011;38377;47.418;18.882;2022-10-18T08:00:07;20.77;;;13.27;;
38379;SDS011;38377;47.418;18.882;2022-10-18T08:02:33;17.85;;;12.68;;
38379;SDS011;38377;47.418;18.882;2022-10-18T08:04:59;18.75;;;12.98;;
38379;SDS011;38377;47.418;18.882;2022-10-18T08:07:25;17.77;;;12.38;;
38379;SDS011;38377;47.418;18.882;2022-10-18T08:09:50;14.88;;;11.40;;
38379;SDS011;38377;47.418;18.882;2022-10-18T08:12:16;13.88;;;11.07;;
38379;SDS011;38377;47.418;18.882;2022-10-18T08:14:42;18.20;;;11.73;;
38379;SDS011;38377;47.418;18.882;2022-10-18T08:17:08;16.33;;;11.68;;
38379;SDS011;38377;47.418;18.882;2022-10-18T08:19:33;13.40;;;11.30;;
38379;SDS011;38377;47.418;18.882;2022-10-18T08:21:59;15.07;;;11.60;;
38379;SDS011;38377;47.418;18.882;2022-10-18T08:24:25;14.85;;;10.40;;
38379;SDS011;38377;47.418;18.882;2022-10-18T08:26:50;15.02;;;11.55;;
38379;SDS011;38377;47.418;18.882;2022-10-18T08:29:16;17.27;;;10.82;;
38379;SDS011;38377;47.418;18.882;2022-10-18T08:31:43;15.40;;;10.80;;
38379;SDS011;38377;47.418;18.882;2022-10-18T08:34:08;20.40;;;10.55;;
38379;SDS011;38377;47.418;18.882;2022-10-18T08:36:34;15.75;;;9.48;;
38379;SDS011;38377;47.418;18.882;2022-10-18T08:39:01;13.07;;;10.25;;
38379;SDS011;38377;47.418;18.882;2022-10-18T08:44:16;12.45;;;8.90;;
38379;SDS011;38377;47.418;18.882;2022-10-18T08:46:47;13.32;;;9.82;;
38379;SDS011;38377;47.418;18.882;2022-10-18T08:49:35;15.98;;;9.38;;
38379;SDS011;38377;47.418;18.882;2022-10-18T08:52:09;14.73;;;9.40;;
38379;SDS011;38377;47.418;18.882;2022-10-18T08:54:58;13.60;;;9.20;;
38379;SDS011;38377;47.418;18.882;2022-10-18T08:57:34;11.25;;;8.13;;
38379;SDS011;38377;47.418;18.882;2022-10-18T09:00:00;11.02;;;8.20;;
38379;SDS011;38377;47.418;18.882;2022-10-18T09:05:51;15.27;;;9.10;;
38379;SDS011;38377;47.418;18.882;2022-10-18T09:16:19;10.18;;;7.43;;
38379;SDS011;38377;47.418;18.882;2022-10-18T09:18:57;17.15;;;9.18;;
38379;SDS011;38377;47.418;18.882;2022-10-18T09:24:28;25.13;;;9.23;;
38379;SDS011;38377;47.418;18.882;2022-10-18T09:27:16;10.30;;;7.50;;
38379;SDS011;38377;47.418;18.882;2022-10-18T09:29:52;12.65;;;7.60;;
38379;SDS011;38377;47.418;18.882;2022-10-18T09:35:21;11.75;;;7.85;;
38379;SDS011;38377;47.418;18.882;2022-10-18T09:37:52;9.48;;;7.32;;
38379;SDS011;38377;47.418;18.882;2022-10-18T09:40:25;11.13;;;7.47;;
38379;SDS011;38377;47.418;18.882;2022-10-18T09:48:16;12.85;;;7.22;;
38379;SDS011;38377;47.418;18.882;2022-10-18T09:51:07;12.00;;;9.13;;
38379;SDS011;38377;47.418;18.882;2022-10-18T09:56:14;12.20;;;7.28;;
38379;SDS011;38377;47.418;18.882;2022-10-18T09:58:46;13.27;;;8.48;;
38379;SDS011;38377;47.418;18.882;2022-10-18T10:01:15;12.90;;;8.05;;
38379;SDS011;38377;47.418;18.882;2022-10-18T10:03:45;9.77;;;7.20;;
38379;SDS011;38377;47.418;18.882;2022-10-18T10:08:36;14.57;;;6.15;;
38379;SDS011;38377;47.418;18.882;2022-10-18T10:11:28;10.10;;;6.57;;
38379;SDS011;38377;47.418;18.882;2022-10-18T10:13:57;14.40;;;7.78;;
38379;SDS011;38377;47.418;18.882;2022-10-18T10:16:32;11.10;;;6.90;;
38379;SDS011;38377;47.418;18.882;2022-10-18T10:18:57;10.00;;;6.70;;
38379;SDS011;38377;47.418;18.882;2022-10-18T10:21:23;12.93;;;6.97;;
38379;SDS011;38377;47.418;18.882;2022-10-18T10:23:50;9.30;;;6.15;;
38379;SDS011;38377;47.418;18.882;2022-10-18T10:26:22;11.45;;;6.38;;
38379;SDS011;38377;47.418;18.882;2022-10-18T10:28:51;9.63;;;6.65;;
38379;SDS011;38377;47.418;18.882;2022-10-18T10:34:02;8.25;;;6.38;;
38379;SDS011;38377;47.418;18.882;2022-10-18T10:36:30;11.25;;;5.75;;
38379;SDS011;38377;47.418;18.882;2022-10-18T10:39:08;11.25;;;5.78;;
38379;SDS011;38377;47.418;18.882;2022-10-18T10:41:36;8.98;;;5.70;;
38379;SDS011;38377;47.418;18.882;2022-10-18T10:44:04;8.90;;;5.55;;
38379;SDS011;38377;47.418;18.882;2022-10-18T10:46:48;22.98;;;6.40;;
38379;SDS011;38377;47.418;18.882;2022-10-18T10:49:18;12.70;;;6.13;;
38379;SDS011;38377;47.418;18.882;2022-10-18T10:51:52;11.15;;;6.47;;
38379;SDS011;38377;47.418;18.882;2022-10-18T10:54:26;9.00;;;5.43;;
38379;SDS011;38377;47.418;18.882;2022-10-18T10:56:57;11.65;;;5.80;;
38379;SDS011;38377;47.418;18.882;2022-10-18T10:59:54;12.38;;;5.65;;
38379;SDS011;38377;47.418;18.882;2022-10-18T11:02:25;10.38;;;5.53;;
38379;SDS011;38377;47.418;18.882;2022-10-18T11:04:54;8.30;;;4.90;;
38379;SDS011;38377;47.418;18.882;2022-10-18T11:07:28;8.23;;;5.28;;
38379;SDS011;38377;47.418;18.882;2022-10-18T11:10:09;14.38;;;5.20;;
38379;SDS011;38377;47.418;18.882;2022-10-18T11:23:13;6.82;;;4.43;;
38379;SDS011;38377;47.418;18.882;2022-10-18T11:39:02;7.95;;;4.03;;
38379;SDS011;38377;47.418;18.882;2022-10-18T11:42:02;6.28;;;4.28;;
38379;SDS011;38377;47.418;18.882;2022-10-18T11:47:52;5.85;;;4.28;;
38379;SDS011;38377;47.418;18.882;2022-10-18T11:50:33;4.93;;;3.88;;
38379;SDS011;38377;47.418;18.882;2022-10-18T11:53:08;6.10;;;4.28;;
38379;SDS011;38377;47.418;18.882;2022-10-18T12:06:42;7.78;;;4.85;;
38379;SDS011;38377;47.418;18.882;2022-10-18T12:11:52;6.85;;;4.55;;
38379;SDS011;38377;47.418;18.882;2022-10-18T12:14:41;8.88;;;4.45;;
38379;SDS011;38377;47.418;18.882;2022-10-18T12:19:54;6.80;;;4.20;;
38379;SDS011;38377;47.418;18.882;2022-10-18T12:23:09;11.05;;;5.03;;
38379;SDS011;38377;47.418;18.882;2022-10-18T12:25:35;10.48;;;4.55;;
38379;SDS011;38377;47.418;18.882;2022-10-18T12:30:46;6.75;;;4.53;;
38379;SDS011;38377;47.418;18.882;2022-10-18T12:33:41;17.02;;;5.55;;
38379;SDS011;38377;47.418;18.882;2022-10-18T12:39:21;7.47;;;3.83;;
38379;SDS011;38377;47.418;18.882;2022-10-18T12:41:45;7.70;;;4.18;;
38379;SDS011;38377;47.418;18.882;2022-10-18T12:44:19;8.98;;;4.32;;
38379;SDS011;38377;47.418;18.882;2022-10-18T12:46:57;7.28;;;3.55;;
38379;SDS011;38377;47.418;18.882;2022-10-18T12:49:28;8.43;;;3.90;;
38379;SDS011;38377;47.418;18.882;2022-10-18T12:52:06;6.72;;;4.07;;
38379;SDS011;38377;47.418;18.882;2022-10-18T13:16:09;5.38;;;3.65;;
38379;SDS011;38377;47.418;18.882;2022-10-18T13:19:00;7.57;;;4.00;;
38379;SDS011;38377;47.418;18.882;2022-10-18T13:27:06;8.15;;;3.97;;
38379;SDS011;38377;47.418;18.882;2022-10-18T13:35:49;5.40;;;3.95;;
38379;SDS011;38377;47.418;18.882;2022-10-18T13:41:10;7.30;;;4.20;;
38379;SDS011;38377;47.418;18.882;2022-10-18T13:52:05;8.07;;;4.07;;
38379;SDS011;38377;47.418;18.882;2022-10-18T14:00:10;7.95;;;4.30;;
38379;SDS011;38377;47.418;18.882;2022-10-18T14:05:48;10.07;;;4.93;;
38379;SDS011;38377;47.418;18.882;2022-10-18T14:11:02;5.85;;;3.95;;
38379;SDS011;38377;47.418;18.882;2022-10-18T14:13:56;8.80;;;4.10;;
38379;SDS011;38377;47.418;18.882;2022-10-18T14:16:36;8.45;;;4.07;;
38379;SDS011;38377;47.418;18.882;2022-10-18T14:19:39;7.22;;;3.85;;
38379;SDS011;38377;47.418;18.882;2022-10-18T14:22:33;10.65;;;4.20;;
38379;SDS011;38377;47.418;18.882;2022-10-18T14:25:16;15.57;;;5.00;;
38379;SDS011;38377;47.418;18.882;2022-10-18T14:27:47;11.60;;;4.35;;
38379;SDS011;38377;47.418;18.882;2022-10-18T14:30:14;5.65;;;4.35;;
38379;SDS011;38377;47.418;18.882;2022-10-18T14:32:44;14.23;;;4.15;;
38379;SDS011;38377;47.418;18.882;2022-10-18T14:35:21;5.25;;;4.05;;
38379;SDS011;38377;47.418;18.882;2022-10-18T14:37:53;8.23;;;4.43;;
38379;SDS011;38377;47.418;18.882;2022-10-18T14:40:27;8.80;;;4.78;;
38379;SDS011;38377;47.418;18.882;2022-10-18T14:42:54;5.28;;;4.10;;
38379;SDS011;38377;47.418;18.882;2022-10-18T14:45:20;7.68;;;4.00;;
38379;SDS011;38377;47.418;18.882;2022-10-18T14:47:47;8.57;;;4.07;;
38379;SDS011;38377;47.418;18.882;2022-10-18T14:50:23;8.98;;;3.90;;
38379;SDS011;38377;47.418;18.882;2022-10-18T14:52:51;11.35;;;4.63;;
38379;SDS011;38377;47.418;18.882;2022-10-18T14:55:24;7.35;;;4.60;;
38379;SDS011;38377;47.418;18.882;2022-10-18T14:57:56;31.10;;;7.05;;
38379;SDS011;38377;47.418;18.882;2022-10-18T15:00:24;21.33;;;5.82;;
38379;SDS011;38377;47.418;18.882;2022-10-18T15:02:54;9.70;;;4.55;;
38379;SDS011;38377;47.418;18.882;2022-10-18T15:05:23;15.65;;;4.90;;
38379;SDS011;38377;47.418;18.882;2022-10-18T15:07:50;6.93;;;4.28;;
38379;SDS011;38377;47.418;18.882;2022-10-18T15:10:22;10.40;;;4.63;;
38379;SDS011;38377;47.418;18.882;2022-10-18T15:12:55;12.20;;;4.25;;
38379;SDS011;38377;47.418;18.882;2022-10-18T15:15:27;9.68;;;4.53;;
38379;SDS011;38377;47.418;18.882;2022-10-18T15:17:55;9.77;;;4.85;;
38379;SDS011;38377;47.418;18.882;2022-10-18T15:20:26;11.88;;;5.45;;
38379;SDS011;38377;47.418;18.882;2022-10-18T15:23:17;17.02;;;5.82;;
38379;SDS011;38377;47.418;18.882;2022-10-18T15:25:49;11.18;;;5.18;;
38379;SDS011;38377;47.418;18.882;2022-10-18T15:28:23;7.88;;;4.78;;
38379;SDS011;38377;47.418;18.882;2022-10-18T15:30:55;11.65;;;5.22;;
38379;SDS011;38377;47.418;18.882;2022-10-18T15:33:22;12.40;;;5.25;;
38379;SDS011;38377;47.418;18.882;2022-10-18T15:35:50;12.70;;;5.30;;
38379;SDS011;38377;47.418;18.882;2022-10-18T15:40:45;12.73;;;5.82;;
38379;SDS011;38377;47.418;18.882;2022-10-18T15:45:53;27.38;;;9.80;;
38379;SDS011;38377;47.418;18.882;2022-10-18T15:50:53;19.10;;;8.93;;
38379;SDS011;38377;47.418;18.882;2022-10-18T15:58:25;18.05;;;8.82;;
38379;SDS011;38377;47.418;18.882;2022-10-18T16:00:56;19.00;;;9.88;;
38379;SDS011;38377;47.418;18.882;2022-10-18T16:03:24;22.52;;;8.70;;
38379;SDS011;38377;47.418;18.882;2022-10-18T16:05:52;22.73;;;10.02;;
38379;SDS011;38377;47.418;18.882;2022-10-18T16:08:24;29.83;;;11.35;;
38379;SDS011;38377;47.418;18.882;2022-10-18T16:10:54;23.50;;;11.52;;
38379;SDS011;38377;47.418;18.882;2022-10-18T16:13:20;24.10;;;11.60;;
38379;SDS011;38377;47.418;18.882;2022-10-18T16:15:46;23.92;;;12.45;;
38379;SDS011;38377;47.418;18.882;2022-10-18T16:18:13;26.60;;;12.35;;
38379;SDS011;38377;47.418;18.882;2022-10-18T16:20:41;28.10;;;12.77;;
38379;SDS011;38377;47.418;18.882;2022-10-18T16:23:18;31.15;;;15.93;;
38379;SDS011;38377;47.418;18.882;2022-10-18T16:25:45;37.28;;;16.40;;
38379;SDS011;38377;47.418;18.882;2022-10-18T16:28:14;38.72;;;18.17;;
38379;SDS011;38377;47.418;18.882;2022-10-18T16:31:19;43.63;;;22.15;;
38379;SDS011;38377;47.418;18.882;2022-10-18T16:33:42;43.15;;;22.70;;
38379;SDS011;38377;47.418;18.882;2022-10-18T16:36:10;41.35;;;25.08;;
38379;SDS011;38377;47.418;18.882;2022-10-18T16:38:39;46.85;;;24.58;;
38379;SDS011;38377;47.418;18.882;2022-10-18T16:41:05;43.22;;;25.98;;
38379;SDS011;38377;47.418;18.882;2022-10-18T16:43:32;43.40;;;24.45;;
38379;SDS011;38377;47.418;18.882;2022-10-18T16:45:59;38.10;;;25.67;;
38379;SDS011;38377;47.418;18.882;2022-10-18T16:48:25;39.65;;;25.98;;
38379;SDS011;38377;47.418;18.882;2022-10-18T16:50:52;41.70;;;25.90;;
38379;SDS011;38377;47.418;18.882;2022-10-18T16:53:19;42.38;;;25.45;;
38379;SDS011;38377;47.418;18.882;2022-10-18T16:55:52;48.53;;;26.90;;
38379;SDS011;38377;47.418;18.882;2022-10-18T16:58:20;47.72;;;29.17;;
38379;SDS011;38377;47.418;18.882;2022-10-18T17:00:46;59.70;;;30.70;;
38379;SDS011;38377;47.418;18.882;2022-10-18T17:03:13;47.40;;;29.25;;
38379;SDS011;38377;47.418;18.882;2022-10-18T17:05:39;50.75;;;27.45;;
38379;SDS011;38377;47.418;18.882;2022-10-18T17:08:06;40.33;;;24.73;;
38379;SDS011;38377;47.418;18.882;2022-10-18T17:10:37;43.38;;;25.35;;
38379;SDS011;38377;47.418;18.882;2022-10-18T17:13:04;43.85;;;27.63;;
38379;SDS011;38377;47.418;18.882;2022-10-18T17:15:29;54.17;;;32.15;;
38379;SDS011;38377;47.418;18.882;2022-10-18T17:17:55;53.30;;;33.75;;
38379;SDS011;38377;47.418;18.882;2022-10-18T17:20:22;54.95;;;32.58;;
38379;SDS011;38377;47.418;18.882;2022-10-18T17:22:50;48.70;;;32.72;;
38379;SDS011;38377;47.418;18.882;2022-10-18T17:25:16;53.72;;;30.48;;
38379;SDS011;38377;47.418;18.882;2022-10-18T17:27:42;44.70;;;29.05;;
38379;SDS011;38377;47.418;18.882;2022-10-18T17:30:09;46.92;;;29.90;;